sensor_id;sensor_type;location;lat;lon;timestamp;pressure;altitude;pressure_sealevel;temperature
38114;BMP180;23926;53.222;6.354;2023-03-23T00:01:04;99876.00;;;13.20
38114;BMP180;23926;53.222;6.354;2023-03-23T00:03:30;99877.00;;;13.10
38114;BMP180;23926;53.222;6.354;2023-03-23T00:06:00;99881.00;;;13.10
38114;BMP180;23926;53.222;6.354;2023-03-23T00:08:28;99861.00;;;13.10
38114;BMP180;23926;53.222;6.354;2023-03-23T00:10:53;99866.00;;;13.10
38114;BMP180;23926;53.222;6.354;2023-03-23T00:13:24;99873.00;;;13.00
38114;BMP180;23926;53.222;6.354;2023-03-23T00:15:50;99880.00;;;13.10
38114;BMP180;23926;53.222;6.354;2023-03-23T00:18:18;99869.00;;;13.10
38114;BMP180;23926;53.222;6.354;2023-03-23T00:20:50;99865.00;;;13.00
38114;BMP180;23926;53.222;6.354;2023-03-23T00:23:20;99868.00;;;12.80
38114;BMP180;23926;53.222;6.354;2023-03-23T00:25:54;99853.00;;;12.90
38114;BMP180;23926;53.222;6.354;2023-03-23T00:28:23;99841.00;;;12.80
38114;BMP180;23926;53.222;6.354;2023-03-23T00:31:00;99838.00;;;12.80
38114;BMP180;23926;53.222;6.354;2023-03-23T00:33:28;99846.00;;;12.90
38114;BMP180;23926;53.222;6.354;2023-03-23T00:35:55;99852.00;;;13.00
38114;BMP180;23926;53.222;6.354;2023-03-23T00:38:22;99858.00;;;13.00
38114;BMP180;23926;53.222;6.354;2023-03-23T00:40:49;99855.00;;;13.10
38114;BMP180;23926;53.222;6.354;2023-03-23T00:43:16;99846.00;;;13.10
38114;BMP180;23926;53.222;6.354;2023-03-23T00:45:43;99845.00;;;13.20
38114;BMP180;23926;53.222;6.354;2023-03-23T00:48:10;99836.00;;;13.30
38114;BMP180;23926;53.222;6.354;2023-03-23T00:50:38;99844.00;;;13.20
38114;BMP180;23926;53.222;6.354;2023-03-23T00:53:03;99843.00;;;13.20
38114;BMP180;23926;53.222;6.354;2023-03-23T00:55:29;99851.00;;;13.30
38114;BMP180;23926;53.222;6.354;2023-03-23T00:57:55;99852.00;;;13.40
38114;BMP180;23926;53.222;6.354;2023-03-23T01:00:21;99831.00;;;13.40
38114;BMP180;23926;53.222;6.354;2023-03-23T01:02:48;99837.00;;;13.30
38114;BMP180;23926;53.222;6.354;2023-03-23T01:05:16;99828.00;;;13.30
38114;BMP180;23926;53.222;6.354;2023-03-23T01:07:42;99840.00;;;13.40
38114;BMP180;23926;53.222;6.354;2023-03-23T01:10:10;99826.00;;;13.40
38114;BMP180;23926;53.222;6.354;2023-03-23T01:12:38;99811.00;;;13.30
38114;BMP180;23926;53.222;6.354;2023-03-23T01:15:04;99802.00;;;13.20
38114;BMP180;23926;53.222;6.354;2023-03-23T01:17:31;99785.00;;;13.10
38114;BMP180;23926;53.222;6.354;2023-03-23T01:19:56;99773.00;;;13.10
38114;BMP180;23926;53.222;6.354;2023-03-23T01:22:22;99781.00;;;13.10
38114;BMP180;23926;53.222;6.354;2023-03-23T01:24:47;99782.00;;;13.00
38114;BMP180;23926;53.222;6.354;2023-03-23T01:27:13;99775.00;;;13.00
38114;BMP180;23926;53.222;6.354;2023-03-23T01:29:38;99770.00;;;13.00
38114;BMP180;23926;53.222;6.354;2023-03-23T01:32:03;99763.00;;;13.00
38114;BMP180;23926;53.222;6.354;2023-03-23T01:34:29;99764.00;;;12.90
38114;BMP180;23926;53.222;6.354;2023-03-23T01:36:54;99764.00;;;13.00
38114;BMP180;23926;53.222;6.354;2023-03-23T01:39:21;99761.00;;;13.00
38114;BMP180;23926;53.222;6.354;2023-03-23T01:41:47;99752.00;;;13.00
38114;BMP180;23926;53.222;6.354;2023-03-23T01:46:41;99750.00;;;13.10
38114;BMP180;23926;53.222;6.354;2023-03-23T01:49:15;99752.00;;;13.10
38114;BMP180;23926;53.222;6.354;2023-03-23T01:51:48;99747.00;;;13.20
38114;BMP180;23926;53.222;6.354;2023-03-23T01:54:17;99748.00;;;13.20
38114;BMP180;23926;53.222;6.354;2023-03-23T01:57:01;99755.00;;;13.20
38114;BMP180;23926;53.222;6.354;2023-03-23T01:59:27;99747.00;;;13.30
38114;BMP180;23926;53.222;6.354;2023-03-23T02:01:54;99726.00;;;13.30
38114;BMP180;23926;53.222;6.354;2023-03-23T02:04:23;99733.00;;;13.30
38114;BMP180;23926;53.222;6.354;2023-03-23T02:06:51;99730.00;;;13.40
38114;BMP180;23926;53.222;6.354;2023-03-23T02:09:17;99721.00;;;13.50
38114;BMP180;23926;53.222;6.354;2023-03-23T02:11:43;99716.00;;;13.50
38114;BMP180;23926;53.222;6.354;2023-03-23T02:14:09;99720.00;;;13.50
38114;BMP180;23926;53.222;6.354;2023-03-23T02:17:07;99718.00;;;13.40
38114;BMP180;23926;53.222;6.354;2023-03-23T02:22:29;99727.00;;;13.60
38114;BMP180;23926;53.222;6.354;2023-03-23T02:25:10;99719.00;;;13.60
38114;BMP180;23926;53.222;6.354;2023-03-23T02:36:28;99714.00;;;13.60
38114;BMP180;23926;53.222;6.354;2023-03-23T02:39:32;99704.00;;;13.60
38114;BMP180;23926;53.222;6.354;2023-03-23T02:42:07;99701.00;;;13.60
38114;BMP180;23926;53.222;6.354;2023-03-23T02:44:35;99701.00;;;13.60
38114;BMP180;23926;53.222;6.354;2023-03-23T02:47:06;99691.00;;;13.60
38114;BMP180;23926;53.222;6.354;2023-03-23T02:49:34;99695.00;;;13.60
38114;BMP180;23926;53.222;6.354;2023-03-23T02:52:06;99688.00;;;13.60
38114;BMP180;23926;53.222;6.354;2023-03-23T02:54:34;99685.00;;;13.60
38114;BMP180;23926;53.222;6.354;2023-03-23T02:57:01;99690.00;;;13.60
38114;BMP180;23926;53.222;6.354;2023-03-23T02:59:28;99688.00;;;13.80
38114;BMP180;23926;53.222;6.354;2023-03-23T03:02:32;99679.00;;;13.70
38114;BMP180;23926;53.222;6.354;2023-03-23T03:05:04;99678.00;;;13.70
38114;BMP180;23926;53.222;6.354;2023-03-23T03:13:24;99678.00;;;13.60
38114;BMP180;23926;53.222;6.354;2023-03-23T03:16:31;99670.00;;;13.60
38114;BMP180;23926;53.222;6.354;2023-03-23T03:21:36;99659.00;;;13.60
38114;BMP180;23926;53.222;6.354;2023-03-23T03:24:03;99663.00;;;13.60
38114;BMP180;23926;53.222;6.354;2023-03-23T03:26:33;99646.00;;;13.60
38114;BMP180;23926;53.222;6.354;2023-03-23T03:29:00;99654.00;;;13.70
38114;BMP180;23926;53.222;6.354;2023-03-23T03:31:46;99655.00;;;13.70
38114;BMP180;23926;53.222;6.354;2023-03-23T03:34:13;99647.00;;;13.80
38114;BMP180;23926;53.222;6.354;2023-03-23T03:36:44;99663.00;;;13.70
38114;BMP180;23926;53.222;6.354;2023-03-23T03:39:11;99676.00;;;13.70
38114;BMP180;23926;53.222;6.354;2023-03-23T03:41:38;99672.00;;;13.70
38114;BMP180;23926;53.222;6.354;2023-03-23T03:44:05;99685.00;;;13.70
38114;BMP180;23926;53.222;6.354;2023-03-23T03:46:32;99674.00;;;13.80
38114;BMP180;23926;53.222;6.354;2023-03-23T03:48:58;99678.00;;;13.80
38114;BMP180;23926;53.222;6.354;2023-03-23T03:51:25;99655.00;;;13.80
38114;BMP180;23926;53.222;6.354;2023-03-23T03:53:51;99680.00;;;13.60
38114;BMP180;23926;53.222;6.354;2023-03-23T03:56:17;99678.00;;;13.20
38114;BMP180;23926;53.222;6.354;2023-03-23T03:58:42;99660.00;;;13.20
38114;BMP180;23926;53.222;6.354;2023-03-23T04:01:09;99647.00;;;13.30
38114;BMP180;23926;53.222;6.354;2023-03-23T04:03:38;99655.00;;;13.30
38114;BMP180;23926;53.222;6.354;2023-03-23T04:06:04;99658.00;;;13.30
38114;BMP180;23926;53.222;6.354;2023-03-23T04:08:30;99675.00;;;13.20
38114;BMP180;23926;53.222;6.354;2023-03-23T04:10:57;99664.00;;;13.30
38114;BMP180;23926;53.222;6.354;2023-03-23T04:13:22;99675.00;;;13.20
38114;BMP180;23926;53.222;6.354;2023-03-23T04:15:48;99680.00;;;13.10
38114;BMP180;23926;53.222;6.354;2023-03-23T04:18:15;99663.00;;;13.00
38114;BMP180;23926;53.222;6.354;2023-03-23T04:20:46;99670.00;;;12.80
38114;BMP180;23926;53.222;6.354;2023-03-23T04:23:16;99673.00;;;12.70
38114;BMP180;23926;53.222;6.354;2023-03-23T04:25:49;99684.00;;;12.80
38114;BMP180;23926;53.222;6.354;2023-03-23T04:28:19;99676.00;;;12.80
38114;BMP180;23926;53.222;6.354;2023-03-23T04:30:49;99701.00;;;12.90
38114;BMP180;23926;53.222;6.354;2023-03-23T04:33:21;99678.00;;;12.90
38114;BMP180;23926;53.222;6.354;2023-03-23T04:35:47;99672.00;;;12.90
38114;BMP180;23926;53.222;6.354;2023-03-23T04:38:15;99679.00;;;12.90
38114;BMP180;23926;53.222;6.354;2023-03-23T04:40:45;99675.00;;;12.70
38114;BMP180;23926;53.222;6.354;2023-03-23T04:43:11;99674.00;;;12.60
38114;BMP180;23926;53.222;6.354;2023-03-23T04:45:38;99680.00;;;12.60
38114;BMP180;23926;53.222;6.354;2023-03-23T04:48:07;99689.00;;;12.50
38114;BMP180;23926;53.222;6.354;2023-03-23T04:50:33;99678.00;;;12.50
38114;BMP180;23926;53.222;6.354;2023-03-23T04:53:01;99688.00;;;12.40
38114;BMP180;23926;53.222;6.354;2023-03-23T04:55:34;99687.00;;;12.40
38114;BMP180;23926;53.222;6.354;2023-03-23T04:58:05;99686.00;;;12.60
38114;BMP180;23926;53.222;6.354;2023-03-23T05:00:31;99678.00;;;12.40
38114;BMP180;23926;53.222;6.354;2023-03-23T05:02:57;99688.00;;;12.50
38114;BMP180;23926;53.222;6.354;2023-03-23T05:05:24;99674.00;;;12.50
38114;BMP180;23926;53.222;6.354;2023-03-23T05:07:50;99692.00;;;12.60
38114;BMP180;23926;53.222;6.354;2023-03-23T05:10:16;99698.00;;;12.60
38114;BMP180;23926;53.222;6.354;2023-03-23T05:12:42;99683.00;;;12.50
38114;BMP180;23926;53.222;6.354;2023-03-23T05:15:09;99700.00;;;12.60
38114;BMP180;23926;53.222;6.354;2023-03-23T05:17:35;99697.00;;;12.50
38114;BMP180;23926;53.222;6.354;2023-03-23T05:20:01;99698.00;;;12.50
38114;BMP180;23926;53.222;6.354;2023-03-23T05:22:29;99692.00;;;12.60
38114;BMP180;23926;53.222;6.354;2023-03-23T05:24:58;99703.00;;;12.60
38114;BMP180;23926;53.222;6.354;2023-03-23T05:27:24;99715.00;;;12.60
38114;BMP180;23926;53.222;6.354;2023-03-23T05:29:55;99711.00;;;12.70
38114;BMP180;23926;53.222;6.354;2023-03-23T05:32:21;99712.00;;;12.70
38114;BMP180;23926;53.222;6.354;2023-03-23T05:34:46;99717.00;;;12.60
38114;BMP180;23926;53.222;6.354;2023-03-23T05:37:12;99729.00;;;12.50
38114;BMP180;23926;53.222;6.354;2023-03-23T05:39:39;99721.00;;;12.50
38114;BMP180;23926;53.222;6.354;2023-03-23T05:42:05;99722.00;;;12.40
38114;BMP180;23926;53.222;6.354;2023-03-23T05:44:31;99732.00;;;12.40
38114;BMP180;23926;53.222;6.354;2023-03-23T05:46:56;99729.00;;;12.30
38114;BMP180;23926;53.222;6.354;2023-03-23T05:49:22;99723.00;;;12.40
38114;BMP180;23926;53.222;6.354;2023-03-23T05:51:47;99734.00;;;12.30
38114;BMP180;23926;53.222;6.354;2023-03-23T05:54:15;99735.00;;;12.40
38114;BMP180;23926;53.222;6.354;2023-03-23T05:56:41;99734.00;;;12.40
38114;BMP180;23926;53.222;6.354;2023-03-23T05:59:07;99736.00;;;12.50
38114;BMP180;23926;53.222;6.354;2023-03-23T06:01:33;99730.00;;;12.50
38114;BMP180;23926;53.222;6.354;2023-03-23T06:03:58;99740.00;;;12.50
38114;BMP180;23926;53.222;6.354;2023-03-23T06:06:28;99727.00;;;12.50
38114;BMP180;23926;53.222;6.354;2023-03-23T06:08:55;99739.00;;;12.60
38114;BMP180;23926;53.222;6.354;2023-03-23T06:11:23;99751.00;;;12.70
38114;BMP180;23926;53.222;6.354;2023-03-23T06:13:49;99747.00;;;12.50
38114;BMP180;23926;53.222;6.354;2023-03-23T06:16:15;99748.00;;;12.60
38114;BMP180;23926;53.222;6.354;2023-03-23T06:18:40;99760.00;;;12.70
38114;BMP180;23926;53.222;6.354;2023-03-23T06:21:07;99734.00;;;12.50
38114;BMP180;23926;53.222;6.354;2023-03-23T06:23:34;99778.00;;;12.60
38114;BMP180;23926;53.222;6.354;2023-03-23T06:26:02;99768.00;;;12.60
38114;BMP180;23926;53.222;6.354;2023-03-23T06:28:29;99759.00;;;12.30
38114;BMP180;23926;53.222;6.354;2023-03-23T06:30:59;99788.00;;;12.30
38114;BMP180;23926;53.222;6.354;2023-03-23T06:33:25;99777.00;;;12.30
38114;BMP180;23926;53.222;6.354;2023-03-23T06:35:51;99783.00;;;12.20
38114;BMP180;23926;53.222;6.354;2023-03-23T06:38:18;99778.00;;;12.30
38114;BMP180;23926;53.222;6.354;2023-03-23T06:40:43;99778.00;;;12.30
38114;BMP180;23926;53.222;6.354;2023-03-23T06:43:13;99772.00;;;12.10
38114;BMP180;23926;53.222;6.354;2023-03-23T06:45:39;99782.00;;;12.00
38114;BMP180;23926;53.222;6.354;2023-03-23T06:48:06;99791.00;;;11.90
38114;BMP180;23926;53.222;6.354;2023-03-23T06:50:32;99793.00;;;12.00
38114;BMP180;23926;53.222;6.354;2023-03-23T06:52:58;99795.00;;;12.00
38114;BMP180;23926;53.222;6.354;2023-03-23T06:55:23;99823.00;;;12.00
38114;BMP180;23926;53.222;6.354;2023-03-23T06:57:49;99807.00;;;12.00
38114;BMP180;23926;53.222;6.354;2023-03-23T07:00:15;99833.00;;;12.10
38114;BMP180;23926;53.222;6.354;2023-03-23T07:02:41;99827.00;;;12.10
38114;BMP180;23926;53.222;6.354;2023-03-23T07:05:09;99806.00;;;12.30
38114;BMP180;23926;53.222;6.354;2023-03-23T07:07:39;99825.00;;;12.30
38114;BMP180;23926;53.222;6.354;2023-03-23T07:10:06;99799.00;;;12.40
38114;BMP180;23926;53.222;6.354;2023-03-23T07:12:34;99830.00;;;12.50
38114;BMP180;23926;53.222;6.354;2023-03-23T07:15:04;99830.00;;;12.50
38114;BMP180;23926;53.222;6.354;2023-03-23T07:17:36;99842.00;;;12.70
38114;BMP180;23926;53.222;6.354;2023-03-23T07:20:03;99831.00;;;12.60
38114;BMP180;23926;53.222;6.354;2023-03-23T07:22:28;99823.00;;;12.60
38114;BMP180;23926;53.222;6.354;2023-03-23T07:24:54;99807.00;;;12.80
38114;BMP180;23926;53.222;6.354;2023-03-23T07:27:21;99834.00;;;12.80
38114;BMP180;23926;53.222;6.354;2023-03-23T07:29:47;99839.00;;;12.80
38114;BMP180;23926;53.222;6.354;2023-03-23T07:32:13;99839.00;;;12.80
38114;BMP180;23926;53.222;6.354;2023-03-23T07:34:39;99826.00;;;12.70
38114;BMP180;23926;53.222;6.354;2023-03-23T07:37:05;99826.00;;;12.70
38114;BMP180;23926;53.222;6.354;2023-03-23T07:39:31;99835.00;;;12.90
38114;BMP180;23926;53.222;6.354;2023-03-23T07:41:57;99827.00;;;12.90
38114;BMP180;23926;53.222;6.354;2023-03-23T07:44:24;99844.00;;;13.00
38114;BMP180;23926;53.222;6.354;2023-03-23T07:46:51;99855.00;;;13.10
38114;BMP180;23926;53.222;6.354;2023-03-23T07:49:18;99827.00;;;13.10
38114;BMP180;23926;53.222;6.354;2023-03-23T07:51:44;99821.00;;;13.10
38114;BMP180;23926;53.222;6.354;2023-03-23T07:54:12;99845.00;;;13.20
38114;BMP180;23926;53.222;6.354;2023-03-23T07:56:39;99869.00;;;13.30
38114;BMP180;23926;53.222;6.354;2023-03-23T07:59:06;99861.00;;;13.20
38114;BMP180;23926;53.222;6.354;2023-03-23T08:01:33;99868.00;;;13.20
38114;BMP180;23926;53.222;6.354;2023-03-23T08:04:01;99859.00;;;13.20
38114;BMP180;23926;53.222;6.354;2023-03-23T08:06:29;99860.00;;;13.00
38114;BMP180;23926;53.222;6.354;2023-03-23T08:08:57;99841.00;;;13.20
38114;BMP180;23926;53.222;6.354;2023-03-23T08:11:23;99861.00;;;13.10
38114;BMP180;23926;53.222;6.354;2023-03-23T08:13:49;99855.00;;;13.10
38114;BMP180;23926;53.222;6.354;2023-03-23T08:16:16;99889.00;;;13.20
38114;BMP180;23926;53.222;6.354;2023-03-23T08:18:44;99877.00;;;13.40
38114;BMP180;23926;53.222;6.354;2023-03-23T08:21:10;99866.00;;;13.40
38114;BMP180;23926;53.222;6.354;2023-03-23T08:23:36;99880.00;;;13.50
38114;BMP180;23926;53.222;6.354;2023-03-23T08:26:04;99903.00;;;13.30
38114;BMP180;23926;53.222;6.354;2023-03-23T08:28:31;99880.00;;;13.50
38114;BMP180;23926;53.222;6.354;2023-03-23T08:30:57;99885.00;;;13.50
38114;BMP180;23926;53.222;6.354;2023-03-23T08:33:23;99861.00;;;13.40
38114;BMP180;23926;53.222;6.354;2023-03-23T08:35:56;99902.00;;;13.20
38114;BMP180;23926;53.222;6.354;2023-03-23T08:38:22;99902.00;;;13.30
38114;BMP180;23926;53.222;6.354;2023-03-23T08:40:48;99881.00;;;13.50
38114;BMP180;23926;53.222;6.354;2023-03-23T08:43:16;99892.00;;;13.70
38114;BMP180;23926;53.222;6.354;2023-03-23T08:45:41;99902.00;;;13.70
38114;BMP180;23926;53.222;6.354;2023-03-23T08:48:07;99903.00;;;13.80
38114;BMP180;23926;53.222;6.354;2023-03-23T08:50:33;99904.00;;;14.00
38114;BMP180;23926;53.222;6.354;2023-03-23T08:52:59;99910.00;;;14.10
38114;BMP180;23926;53.222;6.354;2023-03-23T08:55:25;99906.00;;;14.10
38114;BMP180;23926;53.222;6.354;2023-03-23T08:57:52;99898.00;;;14.20
38114;BMP180;23926;53.222;6.354;2023-03-23T09:00:20;99902.00;;;14.30
38114;BMP180;23926;53.222;6.354;2023-03-23T09:02:49;99907.00;;;14.60
38114;BMP180;23926;53.222;6.354;2023-03-23T09:05:16;99910.00;;;14.60
38114;BMP180;23926;53.222;6.354;2023-03-23T09:07:46;99920.00;;;14.60
38114;BMP180;23926;53.222;6.354;2023-03-23T09:10:13;99902.00;;;14.50
38114;BMP180;23926;53.222;6.354;2023-03-23T09:12:40;99884.00;;;14.70
38114;BMP180;23926;53.222;6.354;2023-03-23T09:15:08;99935.00;;;15.00
38114;BMP180;23926;53.222;6.354;2023-03-23T09:17:39;99921.00;;;15.00
38114;BMP180;23926;53.222;6.354;2023-03-23T09:20:07;99920.00;;;15.20
38114;BMP180;23926;53.222;6.354;2023-03-23T09:22:42;99913.00;;;15.40
38114;BMP180;23926;53.222;6.354;2023-03-23T09:25:10;99930.00;;;15.50
38114;BMP180;23926;53.222;6.354;2023-03-23T09:27:37;99904.00;;;15.20
38114;BMP180;23926;53.222;6.354;2023-03-23T09:30:14;99911.00;;;15.30
38114;BMP180;23926;53.222;6.354;2023-03-23T09:32:40;99932.00;;;15.10
38114;BMP180;23926;53.222;6.354;2023-03-23T09:35:08;99949.00;;;15.30
38114;BMP180;23926;53.222;6.354;2023-03-23T09:37:35;99918.00;;;15.30
38114;BMP180;23926;53.222;6.354;2023-03-23T09:40:07;99928.00;;;15.20
38114;BMP180;23926;53.222;6.354;2023-03-23T09:42:46;99945.00;;;15.00
38114;BMP180;23926;53.222;6.354;2023-03-23T09:45:24;99934.00;;;14.80
38114;BMP180;23926;53.222;6.354;2023-03-23T09:50:31;99961.00;;;14.50
38114;BMP180;23926;53.222;6.354;2023-03-23T09:52:59;99954.00;;;14.60
38114;BMP180;23926;53.222;6.354;2023-03-23T09:55:26;99959.00;;;14.80
38114;BMP180;23926;53.222;6.354;2023-03-23T09:58:30;99952.00;;;14.90
38114;BMP180;23926;53.222;6.354;2023-03-23T10:01:08;99959.00;;;15.00
38114;BMP180;23926;53.222;6.354;2023-03-23T10:03:41;99973.00;;;15.30
38114;BMP180;23926;53.222;6.354;2023-03-23T10:06:12;99935.00;;;15.40
38114;BMP180;23926;53.222;6.354;2023-03-23T10:08:47;99960.00;;;15.50
38114;BMP180;23926;53.222;6.354;2023-03-23T10:16:37;99965.00;;;15.70
38114;BMP180;23926;53.222;6.354;2023-03-23T10:19:11;99966.00;;;15.80
38114;BMP180;23926;53.222;6.354;2023-03-23T10:21:41;99970.00;;;15.60
38114;BMP180;23926;53.222;6.354;2023-03-23T10:24:17;99978.00;;;15.60
38114;BMP180;23926;53.222;6.354;2023-03-23T10:29:24;99985.00;;;15.30
38114;BMP180;23926;53.222;6.354;2023-03-23T10:32:14;99986.00;;;15.10
38114;BMP180;23926;53.222;6.354;2023-03-23T10:34:45;99991.00;;;15.20
38114;BMP180;23926;53.222;6.354;2023-03-23T10:37:22;99995.00;;;15.10
38114;BMP180;23926;53.222;6.354;2023-03-23T10:39:54;99987.00;;;15.20
38114;BMP180;23926;53.222;6.354;2023-03-23T10:42:27;99995.00;;;15.10
38114;BMP180;23926;53.222;6.354;2023-03-23T10:44:55;100000.00;;;15.30
38114;BMP180;23926;53.222;6.354;2023-03-23T10:47:22;99985.00;;;15.40
38114;BMP180;23926;53.222;6.354;2023-03-23T10:49:59;99999.00;;;15.50
38114;BMP180;23926;53.222;6.354;2023-03-23T10:52:34;99985.00;;;15.30
38114;BMP180;23926;53.222;6.354;2023-03-23T10:55:17;99987.00;;;15.10
38114;BMP180;23926;53.222;6.354;2023-03-23T10:58:09;99995.00;;;15.00
38114;BMP180;23926;53.222;6.354;2023-03-23T11:00:46;100001.00;;;15.10
38114;BMP180;23926;53.222;6.354;2023-03-23T11:05:58;99991.00;;;15.50
38114;BMP180;23926;53.222;6.354;2023-03-23T11:08:27;99993.00;;;15.70
38114;BMP180;23926;53.222;6.354;2023-03-23T11:10:59;99991.00;;;15.90
38114;BMP180;23926;53.222;6.354;2023-03-23T11:13:32;99977.00;;;16.20
38114;BMP180;23926;53.222;6.354;2023-03-23T11:15:59;99976.00;;;16.50
38114;BMP180;23926;53.222;6.354;2023-03-23T11:18:39;99999.00;;;16.50
38114;BMP180;23926;53.222;6.354;2023-03-23T11:21:08;99987.00;;;16.80
38114;BMP180;23926;53.222;6.354;2023-03-23T11:23:39;100000.00;;;16.70
38114;BMP180;23926;53.222;6.354;2023-03-23T11:29:05;100007.00;;;16.50
38114;BMP180;23926;53.222;6.354;2023-03-23T11:31:39;100006.00;;;16.50
38114;BMP180;23926;53.222;6.354;2023-03-23T11:34:17;100010.00;;;16.90
38114;BMP180;23926;53.222;6.354;2023-03-23T11:39:59;100004.00;;;17.50
38114;BMP180;23926;53.222;6.354;2023-03-23T11:42:38;100021.00;;;17.50
38114;BMP180;23926;53.222;6.354;2023-03-23T11:45:17;100009.00;;;17.50
38114;BMP180;23926;53.222;6.354;2023-03-23T11:50:51;100018.00;;;17.00
38114;BMP180;23926;53.222;6.354;2023-03-23T11:53:33;100028.00;;;17.10
38114;BMP180;23926;53.222;6.354;2023-03-23T11:56:09;100018.00;;;17.10
38114;BMP180;23926;53.222;6.354;2023-03-23T11:58:36;100009.00;;;16.90
38114;BMP180;23926;53.222;6.354;2023-03-23T12:01:28;100039.00;;;17.00
38114;BMP180;23926;53.222;6.354;2023-03-23T12:04:06;100042.00;;;17.00
38114;BMP180;23926;53.222;6.354;2023-03-23T12:14:50;100029.00;;;17.20
38114;BMP180;23926;53.222;6.354;2023-03-23T12:22:58;100048.00;;;17.20
38114;BMP180;23926;53.222;6.354;2023-03-23T12:33:54;100047.00;;;16.80
38114;BMP180;23926;53.222;6.354;2023-03-23T12:44:58;100049.00;;;16.40
38114;BMP180;23926;53.222;6.354;2023-03-23T12:47:40;100049.00;;;16.40
38114;BMP180;23926;53.222;6.354;2023-03-23T12:50:16;100045.00;;;16.40
38114;BMP180;23926;53.222;6.354;2023-03-23T12:52:54;100037.00;;;16.30
38114;BMP180;23926;53.222;6.354;2023-03-23T12:58:38;100048.00;;;16.30
38114;BMP180;23926;53.222;6.354;2023-03-23T13:03:53;100033.00;;;16.40
38114;BMP180;23926;53.222;6.354;2023-03-23T13:09:12;100025.00;;;16.70
38114;BMP180;23926;53.222;6.354;2023-03-23T13:11:42;100029.00;;;16.80
38114;BMP180;23926;53.222;6.354;2023-03-23T13:20:48;100023.00;;;17.00
38114;BMP180;23926;53.222;6.354;2023-03-23T13:22:54;100027.00;;;17.30
38114;BMP180;23926;53.222;6.354;2023-03-23T13:28:02;100037.00;;;17.30
38114;BMP180;23926;53.222;6.354;2023-03-23T13:30:29;100027.00;;;17.10
38114;BMP180;23926;53.222;6.354;2023-03-23T13:33:05;100021.00;;;17.00
38114;BMP180;23926;53.222;6.354;2023-03-23T13:35:40;100026.00;;;16.90
38114;BMP180;23926;53.222;6.354;2023-03-23T13:38:27;100036.00;;;16.90
38114;BMP180;23926;53.222;6.354;2023-03-23T13:40:56;100020.00;;;16.80
38114;BMP180;23926;53.222;6.354;2023-03-23T13:43:29;100034.00;;;16.60
38114;BMP180;23926;53.222;6.354;2023-03-23T13:46:25;100035.00;;;16.40
38114;BMP180;23926;53.222;6.354;2023-03-23T13:51:46;100035.00;;;16.80
38114;BMP180;23926;53.222;6.354;2023-03-23T13:56:53;100044.00;;;17.00
38114;BMP180;23926;53.222;6.354;2023-03-23T14:01:52;100031.00;;;17.20
38114;BMP180;23926;53.222;6.354;2023-03-23T14:04:19;100043.00;;;17.20
38114;BMP180;23926;53.222;6.354;2023-03-23T14:06:49;100015.00;;;17.30
38114;BMP180;23926;53.222;6.354;2023-03-23T14:11:55;100011.00;;;17.50
38114;BMP180;23926;53.222;6.354;2023-03-23T14:14:32;100025.00;;;17.30
38114;BMP180;23926;53.222;6.354;2023-03-23T14:17:13;100046.00;;;17.10
38114;BMP180;23926;53.222;6.354;2023-03-23T14:19:47;100009.00;;;17.10
38114;BMP180;23926;53.222;6.354;2023-03-23T14:22:25;100046.00;;;16.80
38114;BMP180;23926;53.222;6.354;2023-03-23T14:24:58;100044.00;;;16.60
38114;BMP180;23926;53.222;6.354;2023-03-23T14:27:26;100041.00;;;16.60
38114;BMP180;23926;53.222;6.354;2023-03-23T14:29:59;100037.00;;;16.60
38114;BMP180;23926;53.222;6.354;2023-03-23T14:32:28;100051.00;;;16.60
38114;BMP180;23926;53.222;6.354;2023-03-23T14:34:54;100044.00;;;16.60
38114;BMP180;23926;53.222;6.354;2023-03-23T14:37:25;100023.00;;;16.80
38114;BMP180;23926;53.222;6.354;2023-03-23T14:39:54;100029.00;;;16.90
38114;BMP180;23926;53.222;6.354;2023-03-23T14:42:30;100044.00;;;16.80
38114;BMP180;23926;53.222;6.354;2023-03-23T14:44:57;100005.00;;;16.80
38114;BMP180;23926;53.222;6.354;2023-03-23T14:47:56;100041.00;;;16.80
38114;BMP180;23926;53.222;6.354;2023-03-23T14:50:48;100000.00;;;16.60
38114;BMP180;23926;53.222;6.354;2023-03-23T14:53:38;100031.00;;;16.70
38114;BMP180;23926;53.222;6.354;2023-03-23T14:56:13;100025.00;;;16.80
38114;BMP180;23926;53.222;6.354;2023-03-23T14:58:45;100028.00;;;16.70
38114;BMP180;23926;53.222;6.354;2023-03-23T15:01:16;100049.00;;;16.70
38114;BMP180;23926;53.222;6.354;2023-03-23T15:03:53;100024.00;;;16.60
38114;BMP180;23926;53.222;6.354;2023-03-23T15:06:24;100033.00;;;16.70
38114;BMP180;23926;53.222;6.354;2023-03-23T15:08:54;100046.00;;;16.80
38114;BMP180;23926;53.222;6.354;2023-03-23T15:11:24;100024.00;;;16.70
38114;BMP180;23926;53.222;6.354;2023-03-23T15:13:55;100026.00;;;16.80
38114;BMP180;23926;53.222;6.354;2023-03-23T15:16:27;100027.00;;;16.90
38114;BMP180;23926;53.222;6.354;2023-03-23T15:19:03;100025.00;;;17.00
38114;BMP180;23926;53.222;6.354;2023-03-23T15:21:36;100014.00;;;17.10
38114;BMP180;23926;53.222;6.354;2023-03-23T15:24:39;100007.00;;;17.00
38114;BMP180;23926;53.222;6.354;2023-03-23T15:27:26;100016.00;;;17.00
38114;BMP180;23926;53.222;6.354;2023-03-23T15:29:54;100021.00;;;16.90
38114;BMP180;23926;53.222;6.354;2023-03-23T15:32:29;100029.00;;;16.70
38114;BMP180;23926;53.222;6.354;2023-03-23T15:34:57;99991.00;;;16.70
38114;BMP180;23926;53.222;6.354;2023-03-23T15:37:29;100016.00;;;16.80
38114;BMP180;23926;53.222;6.354;2023-03-23T15:39:59;100010.00;;;16.80
38114;BMP180;23926;53.222;6.354;2023-03-23T15:42:46;100001.00;;;16.60
38114;BMP180;23926;53.222;6.354;2023-03-23T15:45:25;100013.00;;;16.70
38114;BMP180;23926;53.222;6.354;2023-03-23T15:47:52;99992.00;;;16.70
38114;BMP180;23926;53.222;6.354;2023-03-23T15:52:54;99990.00;;;16.80
38114;BMP180;23926;53.222;6.354;2023-03-23T15:57:53;99990.00;;;16.70
38114;BMP180;23926;53.222;6.354;2023-03-23T16:00:22;99968.00;;;16.60
38114;BMP180;23926;53.222;6.354;2023-03-23T16:02:53;99998.00;;;16.50
38114;BMP180;23926;53.222;6.354;2023-03-23T16:05:20;99981.00;;;16.50
38114;BMP180;23926;53.222;6.354;2023-03-23T16:07:46;99973.00;;;16.60
38114;BMP180;23926;53.222;6.354;2023-03-23T16:10:18;99992.00;;;16.60
38114;BMP180;23926;53.222;6.354;2023-03-23T16:12:45;99984.00;;;16.70